sensor_id;sensor_type;location;lat;lon;timestamp;pressure;altitude;pressure_sealevel;temperature;humidity
36630;BME280;36256;42.154;23.002;2023-05-25T00:02:17;97085.59;;;16.24;100.00
36630;BME280;36256;42.154;23.002;2023-05-25T00:04:43;97090.66;;;16.20;100.00
36630;BME280;36256;42.154;23.002;2023-05-25T00:07:13;97096.91;;;16.24;100.00
36630;BME280;36256;42.154;23.002;2023-05-25T00:09:41;97099.47;;;16.22;100.00
36630;BME280;36256;42.154;23.002;2023-05-25T00:12:13;97091.31;;;16.09;100.00
36630;BME280;36256;42.154;23.002;2023-05-25T00:14:40;97085.72;;;15.95;100.00
36630;BME280;36256;42.154;23.002;2023-05-25T00:17:06;97093.47;;;15.94;100.00
36630;BME280;36256;42.154;23.002;2023-05-25T00:19:36;97096.91;;;15.84;100.00
36630;BME280;36256;42.154;23.002;2023-05-25T00:22:03;97103.16;;;15.88;100.00
36630;BME280;36256;42.154;23.002;2023-05-25T00:24:30;97104.91;;;15.85;100.00
36630;BME280;36256;42.154;23.002;2023-05-25T00:26:57;97107.16;;;15.81;100.00
36630;BME280;36256;42.154;23.002;2023-05-25T00:29:24;97106.09;;;15.79;100.00
36630;BME280;36256;42.154;23.002;2023-05-25T00:31:52;97108.63;;;15.77;100.00
36630;BME280;36256;42.154;23.002;2023-05-25T00:34:18;97103.81;;;15.62;100.00
36630;BME280;36256;42.154;23.002;2023-05-25T00:36:46;97107.25;;;15.52;100.00
36630;BME280;36256;42.154;23.002;2023-05-25T00:39:18;97109.88;;;15.55;100.00
36630;BME280;36256;42.154;23.002;2023-05-25T00:41:46;97115.03;;;15.57;100.00
36630;BME280;36256;42.154;23.002;2023-05-25T00:44:14;97113.28;;;15.59;100.00
36630;BME280;36256;42.154;23.002;2023-05-25T00:46:47;97122.38;;;15.49;100.00
36630;BME280;36256;42.154;23.002;2023-05-25T00:49:16;97114.09;;;15.31;100.00
36630;BME280;36256;42.154;23.002;2023-05-25T00:51:44;97113.84;;;15.14;100.00
36630;BME280;36256;42.154;23.002;2023-05-25T00:54:13;97114.59;;;15.15;100.00
36630;BME280;36256;42.154;23.002;2023-05-25T00:56:50;97122.31;;;15.14;100.00
36630;BME280;36256;42.154;23.002;2023-05-25T00:59:25;97126.91;;;15.12;100.00
36630;BME280;36256;42.154;23.002;2023-05-25T01:01:54;97130.19;;;15.10;100.00
36630;BME280;36256;42.154;23.002;2023-05-25T01:04:22;97134.28;;;15.09;100.00
36630;BME280;36256;42.154;23.002;2023-05-25T01:06:49;97134.00;;;15.07;100.00
36630;BME280;36256;42.154;23.002;2023-05-25T01:09:16;97142.56;;;14.98;100.00
36630;BME280;36256;42.154;23.002;2023-05-25T01:11:48;97137.41;;;14.97;100.00
36630;BME280;36256;42.154;23.002;2023-05-25T01:14:19;97140.91;;;14.91;100.00
36630;BME280;36256;42.154;23.002;2023-05-25T01:16:48;97140.13;;;14.76;100.00
36630;BME280;36256;42.154;23.002;2023-05-25T01:19:15;97134.00;;;14.78;100.00
36630;BME280;36256;42.154;23.002;2023-05-25T01:21:50;97139.94;;;14.80;100.00
36630;BME280;36256;42.154;23.002;2023-05-25T01:24:30;97142.19;;;14.76;100.00
36630;BME280;36256;42.154;23.002;2023-05-25T01:27:10;97140.13;;;14.76;100.00
36630;BME280;36256;42.154;23.002;2023-05-25T01:29:41;97137.78;;;14.75;100.00
36630;BME280;36256;42.154;23.002;2023-05-25T01:32:10;97134.38;;;14.71;100.00
36630;BME280;36256;42.154;23.002;2023-05-25T01:34:40;97141.28;;;14.70;100.00
36630;BME280;36256;42.154;23.002;2023-05-25T01:37:09;97137.72;;;14.69;100.00
36630;BME280;36256;42.154;23.002;2023-05-25T01:39:42;97146.75;;;14.73;100.00
36630;BME280;36256;42.154;23.002;2023-05-25T01:42:09;97143.06;;;14.67;100.00
36630;BME280;36256;42.154;23.002;2023-05-25T01:44:37;97132.91;;;14.61;100.00
36630;BME280;36256;42.154;23.002;2023-05-25T01:52:47;97130.16;;;14.52;100.00
36630;BME280;36256;42.154;23.002;2023-05-25T01:55:17;97133.28;;;14.54;100.00
36630;BME280;36256;42.154;23.002;2023-05-25T01:57:49;97129.59;;;14.48;100.00
36630;BME280;36256;42.154;23.002;2023-05-25T02:00:17;97133.75;;;14.38;100.00
36630;BME280;36256;42.154;23.002;2023-05-25T02:02:47;97135.19;;;14.33;100.00
36630;BME280;36256;42.154;23.002;2023-05-25T02:05:18;97146.69;;;14.30;100.00
36630;BME280;36256;42.154;23.002;2023-05-25T02:07:46;97132.09;;;14.31;100.00
36630;BME280;36256;42.154;23.002;2023-05-25T02:10:12;97139.09;;;14.36;100.00
36630;BME280;36256;42.154;23.002;2023-05-25T02:12:39;97119.38;;;14.27;100.00
36630;BME280;36256;42.154;23.002;2023-05-25T02:15:06;97132.78;;;14.41;100.00
36630;BME280;36256;42.154;23.002;2023-05-25T02:17:33;97130.72;;;14.41;100.00
36630;BME280;36256;42.154;23.002;2023-05-25T02:20:03;97139.09;;;14.36;100.00
36630;BME280;36256;42.154;23.002;2023-05-25T02:22:32;97146.88;;;14.41;100.00
36630;BME280;36256;42.154;23.002;2023-05-25T02:24:59;97147.88;;;14.38;100.00
36630;BME280;36256;42.154;23.002;2023-05-25T02:27:26;97149.81;;;14.32;100.00
36630;BME280;36256;42.154;23.002;2023-05-25T02:29:52;97149.53;;;14.21;100.00
36630;BME280;36256;42.154;23.002;2023-05-25T02:32:19;97153.41;;;14.08;100.00
36630;BME280;36256;42.154;23.002;2023-05-25T02:34:46;97131.84;;;13.96;100.00
36630;BME280;36256;42.154;23.002;2023-05-25T02:37:13;97156.50;;;14.10;100.00
36630;BME280;36256;42.154;23.002;2023-05-25T02:39:40;97166.22;;;14.09;100.00
36630;BME280;36256;42.154;23.002;2023-05-25T02:42:07;97166.81;;;14.13;100.00
36630;BME280;36256;42.154;23.002;2023-05-25T02:44:34;97156.75;;;13.98;100.00
36630;BME280;36256;42.154;23.002;2023-05-25T02:47:00;97178.84;;;13.99;100.00
36630;BME280;36256;42.154;23.002;2023-05-25T02:49:27;97171.56;;;13.84;100.00
36630;BME280;36256;42.154;23.002;2023-05-25T02:51:55;97181.16;;;13.77;100.00
36630;BME280;36256;42.154;23.002;2023-05-25T02:54:22;97179.91;;;13.78;100.00
36630;BME280;36256;42.154;23.002;2023-05-25T02:56:48;97175.56;;;13.68;100.00
36630;BME280;36256;42.154;23.002;2023-05-25T02:59:15;97177.09;;;13.78;100.00
36630;BME280;36256;42.154;23.002;2023-05-25T03:01:42;97174.59;;;13.71;100.00
36630;BME280;36256;42.154;23.002;2023-05-25T03:04:09;97171.16;;;13.76;100.00
36630;BME280;36256;42.154;23.002;2023-05-25T03:06:35;97178.03;;;13.75;100.00
36630;BME280;36256;42.154;23.002;2023-05-25T03:09:03;97173.66;;;13.74;100.00
36630;BME280;36256;42.154;23.002;2023-05-25T03:11:31;97183.72;;;13.66;100.00
36630;BME280;36256;42.154;23.002;2023-05-25T03:13:58;97185.28;;;13.67;100.00
36630;BME280;36256;42.154;23.002;2023-05-25T03:16:25;97185.59;;;13.69;100.00
36630;BME280;36256;42.154;23.002;2023-05-25T03:18:51;97188.09;;;13.67;100.00
36630;BME280;36256;42.154;23.002;2023-05-25T03:21:18;97186.06;;;13.68;100.00
36630;BME280;36256;42.154;23.002;2023-05-25T03:23:48;97198.38;;;13.79;100.00
36630;BME280;36256;42.154;23.002;2023-05-25T03:26:14;97204.31;;;13.81;100.00
36630;BME280;36256;42.154;23.002;2023-05-25T03:28:41;97203.06;;;13.82;100.00
36630;BME280;36256;42.154;23.002;2023-05-25T03:31:08;97195.50;;;13.88;100.00
36630;BME280;36256;42.154;23.002;2023-05-25T03:33:35;97206.00;;;13.88;100.00
36630;BME280;36256;42.154;23.002;2023-05-25T03:36:06;97205.84;;;13.91;100.00
36630;BME280;36256;42.154;23.002;2023-05-25T03:38:33;97216.75;;;13.98;100.00
36630;BME280;36256;42.154;23.002;2023-05-25T03:41:00;97218.94;;;14.03;100.00
36630;BME280;36256;42.154;23.002;2023-05-25T03:43:27;97212.41;;;13.97;100.00
36630;BME280;36256;42.154;23.002;2023-05-25T03:45:53;97210.69;;;13.91;100.00
36630;BME280;36256;42.154;23.002;2023-05-25T03:48:20;97218.34;;;13.99;100.00
36630;BME280;36256;42.154;23.002;2023-05-25T03:50:46;97214.09;;;14.04;100.00
36630;BME280;36256;42.154;23.002;2023-05-25T03:53:13;97213.09;;;14.07;100.00
36630;BME280;36256;42.154;23.002;2023-05-25T03:55:40;97210.13;;;14.10;100.00
36630;BME280;36256;42.154;23.002;2023-05-25T03:58:07;97221.19;;;13.90;100.00
36630;BME280;36256;42.154;23.002;2023-05-25T04:00:36;97220.78;;;13.83;100.00
36630;BME280;36256;42.154;23.002;2023-05-25T04:03:03;97234.88;;;13.83;100.00
36630;BME280;36256;42.154;23.002;2023-05-25T04:05:30;97231.75;;;13.81;100.00
36630;BME280;36256;42.154;23.002;2023-05-25T04:07:57;97219.19;;;13.82;100.00
36630;BME280;36256;42.154;23.002;2023-05-25T04:10:24;97231.88;;;13.86;100.00
36630;BME280;36256;42.154;23.002;2023-05-25T04:12:51;97226.06;;;13.90;100.00
36630;BME280;36256;42.154;23.002;2023-05-25T04:15:17;97222.09;;;13.96;100.00
36630;BME280;36256;42.154;23.002;2023-05-25T04:17:44;97227.75;;;13.96;100.00
36630;BME280;36256;42.154;23.002;2023-05-25T04:20:11;97234.28;;;14.02;100.00
36630;BME280;36256;42.154;23.002;2023-05-25T04:22:38;97225.97;;;14.08;100.00
36630;BME280;36256;42.154;23.002;2023-05-25T04:25:05;97232.09;;;14.06;100.00
36630;BME280;36256;42.154;23.002;2023-05-25T04:27:32;97237.75;;;14.06;100.00
36630;BME280;36256;42.154;23.002;2023-05-25T04:29:59;97246.38;;;14.03;100.00
36630;BME280;36256;42.154;23.002;2023-05-25T04:32:26;97245.22;;;14.09;100.00
36630;BME280;36256;42.154;23.002;2023-05-25T04:34:55;97245.22;;;14.09;100.00
36630;BME280;36256;42.154;23.002;2023-05-25T04:37:22;97251.13;;;14.21;100.00
36630;BME280;36256;42.154;23.002;2023-05-25T04:39:52;97249.84;;;14.31;100.00
36630;BME280;36256;42.154;23.002;2023-05-25T04:42:19;97251.34;;;14.41;100.00
36630;BME280;36256;42.154;23.002;2023-05-25T04:44:50;97228.84;;;14.32;100.00
36630;BME280;36256;42.154;23.002;2023-05-25T04:47:18;97249.06;;;14.54;100.00
36630;BME280;36256;42.154;23.002;2023-05-25T04:49:45;97241.19;;;14.58;100.00
36630;BME280;36256;42.154;23.002;2023-05-25T04:52:12;97235.53;;;14.58;100.00
36630;BME280;36256;42.154;23.002;2023-05-25T04:54:38;97255.47;;;14.78;100.00
36630;BME280;36256;42.154;23.002;2023-05-25T04:57:07;97251.59;;;14.90;100.00
36630;BME280;36256;42.154;23.002;2023-05-25T04:59:33;97248.41;;;14.97;100.00
36630;BME280;36256;42.154;23.002;2023-05-25T05:02:00;97251.41;;;15.08;100.00
36630;BME280;36256;42.154;23.002;2023-05-25T05:04:27;97245.09;;;15.13;100.00
36630;BME280;36256;42.154;23.002;2023-05-25T05:06:53;97255.91;;;15.29;100.00
36630;BME280;36256;42.154;23.002;2023-05-25T05:09:23;97263.53;;;15.23;100.00
36630;BME280;36256;42.154;23.002;2023-05-25T05:11:50;97263.13;;;15.16;100.00
36630;BME280;36256;42.154;23.002;2023-05-25T05:14:16;97269.16;;;15.09;100.00
36630;BME280;36256;42.154;23.002;2023-05-25T05:16:43;97261.47;;;15.24;100.00
36630;BME280;36256;42.154;23.002;2023-05-25T05:19:10;97266.50;;;15.43;100.00
36630;BME280;36256;42.154;23.002;2023-05-25T05:21:37;97272.16;;;15.58;100.00
36630;BME280;36256;42.154;23.002;2023-05-25T05:24:04;97274.69;;;15.70;100.00
36630;BME280;36256;42.154;23.002;2023-05-25T05:26:30;97269.41;;;15.78;100.00
36630;BME280;36256;42.154;23.002;2023-05-25T05:29:13;97271.56;;;15.68;100.00
36630;BME280;36256;42.154;23.002;2023-05-25T05:31:40;97265.31;;;15.79;100.00
36630;BME280;36256;42.154;23.002;2023-05-25T05:34:07;97266.16;;;16.00;100.00
36630;BME280;36256;42.154;23.002;2023-05-25T05:36:33;97261.19;;;16.29;100.00
36630;BME280;36256;42.154;23.002;2023-05-25T05:39:20;97255.38;;;16.53;99.28
36630;BME280;36256;42.154;23.002;2023-05-25T05:41:47;97263.00;;;17.07;99.69
36630;BME280;36256;42.154;23.002;2023-05-25T05:44:13;97257.75;;;17.72;93.53
36630;BME280;36256;42.154;23.002;2023-05-25T05:46:40;97269.22;;;18.20;88.71
36630;BME280;36256;42.154;23.002;2023-05-25T05:49:08;97258.81;;;19.01;87.13
36630;BME280;36256;42.154;23.002;2023-05-25T05:51:34;97269.59;;;19.45;82.37
36630;BME280;36256;42.154;23.002;2023-05-25T05:54:02;97264.19;;;19.47;80.55
36630;BME280;36256;42.154;23.002;2023-05-25T05:56:28;97262.88;;;19.48;79.11
36630;BME280;36256;42.154;23.002;2023-05-25T05:58:55;97267.59;;;19.95;79.66
36630;BME280;36256;42.154;23.002;2023-05-25T06:01:22;97256.41;;;20.19;78.24
36630;BME280;36256;42.154;23.002;2023-05-25T06:03:49;97266.47;;;20.59;75.96
36630;BME280;36256;42.154;23.002;2023-05-25T06:06:15;97260.19;;;20.83;71.92
36630;BME280;36256;42.154;23.002;2023-05-25T06:08:42;97235.78;;;20.93;72.62
36630;BME280;36256;42.154;23.002;2023-05-25T06:11:09;97253.44;;;20.86;72.48
36630;BME280;36256;42.154;23.002;2023-05-25T06:13:36;97262.25;;;20.88;73.62
36630;BME280;36256;42.154;23.002;2023-05-25T06:16:03;97258.19;;;20.67;72.92
36630;BME280;36256;42.154;23.002;2023-05-25T06:18:29;97262.09;;;20.58;75.49
36630;BME280;36256;42.154;23.002;2023-05-25T06:20:56;97258.44;;;20.69;76.08
36630;BME280;36256;42.154;23.002;2023-05-25T06:23:23;97262.22;;;20.99;77.21
36630;BME280;36256;42.154;23.002;2023-05-25T06:25:51;97260.75;;;21.33;74.19
36630;BME280;36256;42.154;23.002;2023-05-25T06:28:18;97248.00;;;21.80;70.73
36630;BME280;36256;42.154;23.002;2023-05-25T06:30:44;97247.03;;;22.08;69.75
36630;BME280;36256;42.154;23.002;2023-05-25T06:33:11;97251.78;;;22.29;66.93
36630;BME280;36256;42.154;23.002;2023-05-25T06:35:38;97245.19;;;22.40;65.80
36630;BME280;36256;42.154;23.002;2023-05-25T06:38:05;97251.28;;;22.79;67.00
36630;BME280;36256;42.154;23.002;2023-05-25T06:40:31;97249.69;;;23.02;66.10
36630;BME280;36256;42.154;23.002;2023-05-25T06:42:58;97245.00;;;23.23;64.96
36630;BME280;36256;42.154;23.002;2023-05-25T06:45:25;97237.66;;;23.09;66.17
36630;BME280;36256;42.154;23.002;2023-05-25T06:47:52;97235.81;;;23.30;64.84
36630;BME280;36256;42.154;23.002;2023-05-25T06:50:19;97216.78;;;23.52;64.09
36630;BME280;36256;42.154;23.002;2023-05-25T06:52:46;97232.69;;;23.66;63.84
36630;BME280;36256;42.154;23.002;2023-05-25T06:55:13;97234.41;;;23.18;62.92
36630;BME280;36256;42.154;23.002;2023-05-25T06:57:40;97231.47;;;23.05;64.00
36630;BME280;36256;42.154;23.002;2023-05-25T07:00:07;97227.47;;;23.51;64.07
36630;BME280;36256;42.154;23.002;2023-05-25T07:02:37;97225.28;;;23.76;62.12
36630;BME280;36256;42.154;23.002;2023-05-25T07:05:04;97220.13;;;23.87;61.46
36630;BME280;36256;42.154;23.002;2023-05-25T07:07:31;97219.63;;;24.02;61.39
36630;BME280;36256;42.154;23.002;2023-05-25T07:09:58;97220.00;;;23.80;62.73
36630;BME280;36256;42.154;23.002;2023-05-25T07:12:25;97222.03;;;23.98;63.22
36630;BME280;36256;42.154;23.002;2023-05-25T07:14:51;97214.31;;;23.42;64.03
36630;BME280;36256;42.154;23.002;2023-05-25T07:17:18;97211.84;;;23.33;64.56
36630;BME280;36256;42.154;23.002;2023-05-25T07:19:45;97215.41;;;23.39;64.33
36630;BME280;36256;42.154;23.002;2023-05-25T07:22:14;97206.88;;;23.34;66.29
36630;BME280;36256;42.154;23.002;2023-05-25T07:24:45;97215.50;;;23.66;66.30
36630;BME280;36256;42.154;23.002;2023-05-25T07:27:15;97198.66;;;23.94;67.20
36630;BME280;36256;42.154;23.002;2023-05-25T07:29:42;97201.84;;;24.35;65.69
36630;BME280;36256;42.154;23.002;2023-05-25T07:32:08;97202.59;;;24.09;63.46
36630;BME280;36256;42.154;23.002;2023-05-25T07:34:35;97199.25;;;23.74;62.94
36630;BME280;36256;42.154;23.002;2023-05-25T07:37:02;97209.03;;;23.65;64.50
36630;BME280;36256;42.154;23.002;2023-05-25T07:39:29;97211.06;;;23.52;65.00
36630;BME280;36256;42.154;23.002;2023-05-25T07:41:55;97202.38;;;23.89;63.87
36630;BME280;36256;42.154;23.002;2023-05-25T07:44:22;97193.44;;;24.11;63.29
36630;BME280;36256;42.154;23.002;2023-05-25T07:46:49;97198.31;;;24.29;65.19
36630;BME280;36256;42.154;23.002;2023-05-25T07:49:16;97188.41;;;24.56;62.49
36630;BME280;36256;42.154;23.002;2023-05-25T07:51:43;97167.88;;;24.13;60.09
36630;BME280;36256;42.154;23.002;2023-05-25T07:54:11;97183.13;;;24.34;63.63
36630;BME280;36256;42.154;23.002;2023-05-25T07:56:37;97168.31;;;24.56;62.45
36630;BME280;36256;42.154;23.002;2023-05-25T07:59:04;97176.97;;;24.82;58.74
36630;BME280;36256;42.154;23.002;2023-05-25T08:01:31;97172.97;;;24.72;59.84
36630;BME280;36256;42.154;23.002;2023-05-25T08:03:58;97158.31;;;24.76;62.74
36630;BME280;36256;42.154;23.002;2023-05-25T08:06:25;97170.88;;;24.86;60.10
36630;BME280;36256;42.154;23.002;2023-05-25T08:08:52;97166.25;;;24.83;60.94
36630;BME280;36256;42.154;23.002;2023-05-25T08:11:22;97169.00;;;24.75;62.73
36630;BME280;36256;42.154;23.002;2023-05-25T08:13:50;97164.38;;;24.59;59.67
36630;BME280;36256;42.154;23.002;2023-05-25T08:16:16;97164.16;;;24.70;59.18
36630;BME280;36256;42.154;23.002;2023-05-25T08:18:44;97161.50;;;24.72;61.41
36630;BME280;36256;42.154;23.002;2023-05-25T08:21:12;97159.09;;;24.89;60.84
36630;BME280;36256;42.154;23.002;2023-05-25T08:23:40;97153.78;;;24.93;61.84
36630;BME280;36256;42.154;23.002;2023-05-25T08:26:11;97154.72;;;25.09;67.31
36630;BME280;36256;42.154;23.002;2023-05-25T08:28:57;97160.13;;;25.13;64.30
36630;BME280;36256;42.154;23.002;2023-05-25T08:31:24;97149.97;;;25.12;63.34
36630;BME280;36256;42.154;23.002;2023-05-25T08:33:51;97157.66;;;25.30;63.64
36630;BME280;36256;42.154;23.002;2023-05-25T08:36:18;97155.06;;;25.52;60.39
36630;BME280;36256;42.154;23.002;2023-05-25T08:38:44;97151.50;;;25.26;60.37
36630;BME280;36256;42.154;23.002;2023-05-25T08:41:11;97152.75;;;25.51;59.42
36630;BME280;36256;42.154;23.002;2023-05-25T08:43:40;97146.81;;;25.49;64.88
36630;BME280;36256;42.154;23.002;2023-05-25T08:46:08;97149.88;;;25.51;64.74
36630;BME280;36256;42.154;23.002;2023-05-25T08:48:36;97147.50;;;25.83;64.97
36630;BME280;36256;42.154;23.002;2023-05-25T08:51:09;97148.56;;;26.14;61.70
36630;BME280;36256;42.154;23.002;2023-05-25T08:53:39;97150.19;;;26.22;65.67
36630;BME280;36256;42.154;23.002;2023-05-25T08:56:15;97136.41;;;26.28;58.64
36630;BME280;36256;42.154;23.002;2023-05-25T08:58:52;97148.81;;;26.44;64.37
36630;BME280;36256;42.154;23.002;2023-05-25T09:01:25;97136.63;;;26.59;55.69
36630;BME280;36256;42.154;23.002;2023-05-25T09:03:55;97134.56;;;26.38;57.77
36630;BME280;36256;42.154;23.002;2023-05-25T09:06:23;97133.59;;;26.36;57.46
36630;BME280;36256;42.154;23.002;2023-05-25T09:08:53;97133.13;;;26.24;55.31
36630;BME280;36256;42.154;23.002;2023-05-25T09:11:20;97130.47;;;25.85;53.89
36630;BME280;36256;42.154;23.002;2023-05-25T09:14:03;97128.72;;;25.82;53.30
36630;BME280;36256;42.154;23.002;2023-05-25T09:16:30;97130.47;;;25.44;52.33
36630;BME280;36256;42.154;23.002;2023-05-25T09:18:58;97123.28;;;25.37;52.16
36630;BME280;36256;42.154;23.002;2023-05-25T09:21:25;97118.22;;;25.30;51.92
36630;BME280;36256;42.154;23.002;2023-05-25T09:23:52;97111.75;;;25.17;52.28
36630;BME280;36256;42.154;23.002;2023-05-25T09:26:19;97114.16;;;24.79;54.39
36630;BME280;36256;42.154;23.002;2023-05-25T09:28:46;97124.53;;;24.43;54.95
36630;BME280;36256;42.154;23.002;2023-05-25T09:31:14;97136.91;;;23.93;57.10
36630;BME280;36256;42.154;23.002;2023-05-25T09:33:40;97136.16;;;23.29;60.70
36630;BME280;36256;42.154;23.002;2023-05-25T09:36:08;97137.69;;;23.11;61.47
36630;BME280;36256;42.154;23.002;2023-05-25T09:38:35;97145.59;;;23.05;63.16
36630;BME280;36256;42.154;23.002;2023-05-25T09:41:02;97153.47;;;23.18;63.47
36630;BME280;36256;42.154;23.002;2023-05-25T09:43:30;97142.09;;;23.31;62.99
36630;BME280;36256;42.154;23.002;2023-05-25T09:46:10;97153.66;;;23.44;62.91
36630;BME280;36256;42.154;23.002;2023-05-25T09:48:37;97158.38;;;23.42;62.08
36630;BME280;36256;42.154;23.002;2023-05-25T09:51:05;97159.91;;;23.42;63.04
36630;BME280;36256;42.154;23.002;2023-05-25T09:53:33;97156.41;;;23.50;62.59
36630;BME280;36256;42.154;23.002;2023-05-25T09:56:00;97148.53;;;23.37;59.21
36630;BME280;36256;42.154;23.002;2023-05-25T09:58:29;97159.72;;;23.54;59.01
36630;BME280;36256;42.154;23.002;2023-05-25T10:00:56;97141.03;;;23.66;55.99
36630;BME280;36256;42.154;23.002;2023-05-25T10:03:23;97148.63;;;23.95;60.10
36630;BME280;36256;42.154;23.002;2023-05-25T10:05:53;97126.66;;;24.16;52.82
36630;BME280;36256;42.154;23.002;2023-05-25T10:08:21;97127.28;;;24.48;54.34
36630;BME280;36256;42.154;23.002;2023-05-25T10:10:52;97140.94;;;24.94;56.86
36630;BME280;36256;42.154;23.002;2023-05-25T10:13:20;97137.88;;;25.26;51.17
36630;BME280;36256;42.154;23.002;2023-05-25T10:15:52;97147.13;;;25.45;53.92
36630;BME280;36256;42.154;23.002;2023-05-25T10:18:27;97137.91;;;25.60;47.85
36630;BME280;36256;42.154;23.002;2023-05-25T10:21:02;97136.00;;;25.83;50.70
36630;BME280;36256;42.154;23.002;2023-05-25T10:23:51;97123.94;;;26.05;49.09
36630;BME280;36256;42.154;23.002;2023-05-25T10:26:23;97125.81;;;26.23;50.66
36630;BME280;36256;42.154;23.002;2023-05-25T10:28:55;97137.03;;;26.34;50.99
36630;BME280;36256;42.154;23.002;2023-05-25T10:31:26;97135.78;;;26.51;45.46
36630;BME280;36256;42.154;23.002;2023-05-25T10:33:56;97124.28;;;26.51;47.68
36630;BME280;36256;42.154;23.002;2023-05-25T10:36:24;97137.25;;;26.36;49.84
36630;BME280;36256;42.154;23.002;2023-05-25T10:38:53;97135.81;;;26.22;47.63
36630;BME280;36256;42.154;23.002;2023-05-25T10:41:19;97134.81;;;25.99;47.32
36630;BME280;36256;42.154;23.002;2023-05-25T10:43:47;97141.28;;;25.92;44.58
36630;BME280;36256;42.154;23.002;2023-05-25T10:46:15;97140.28;;;25.69;45.89
36630;BME280;36256;42.154;23.002;2023-05-25T10:48:47;97136.78;;;25.29;46.73
36630;BME280;36256;42.154;23.002;2023-05-25T10:51:14;97158.38;;;25.10;45.88
36630;BME280;36256;42.154;23.002;2023-05-25T10:53:46;97198.59;;;24.70;49.08
36630;BME280;36256;42.154;23.002;2023-05-25T10:56:13;97212.34;;;24.01;52.87
36630;BME280;36256;42.154;23.002;2023-05-25T10:58:41;97221.19;;;23.34;54.17
36630;BME280;36256;42.154;23.002;2023-05-25T11:01:13;97224.72;;;23.03;56.53
36630;BME280;36256;42.154;23.002;2023-05-25T11:06:15;97234.06;;;22.07;60.14
36630;BME280;36256;42.154;23.002;2023-05-25T11:08:49;97233.06;;;21.99;62.23
36630;BME280;36256;42.154;23.002;2023-05-25T11:11:16;97237.78;;;21.96;60.68
36630;BME280;36256;42.154;23.002;2023-05-25T11:13:44;97248.19;;;21.94;62.21
36630;BME280;36256;42.154;23.002;2023-05-25T11:18:57;97233.38;;;21.54;63.77
36630;BME280;36256;42.154;23.002;2023-05-25T11:24:01;97229.25;;;21.55;64.25
36630;BME280;36256;42.154;23.002;2023-05-25T11:26:31;97237.00;;;21.60;64.51
36630;BME280;36256;42.154;23.002;2023-05-25T11:29:10;97238.47;;;21.72;65.47
36630;BME280;36256;42.154;23.002;2023-05-25T11:31:37;97231.69;;;21.75;63.44
36630;BME280;36256;42.154;23.002;2023-05-25T11:34:09;97224.38;;;21.85;64.33
36630;BME280;36256;42.154;23.002;2023-05-25T11:36:37;97210.59;;;21.84;63.83
36630;BME280;36256;42.154;23.002;2023-05-25T11:39:05;97216.81;;;21.88;63.61
36630;BME280;36256;42.154;23.002;2023-05-25T11:42:03;97224.56;;;21.93;65.16
36630;BME280;36256;42.154;23.002;2023-05-25T11:44:34;97227.72;;;21.90;67.02
36630;BME280;36256;42.154;23.002;2023-05-25T11:47:05;97234.69;;;21.94;66.35
36630;BME280;36256;42.154;23.002;2023-05-25T11:49:38;97213.25;;;21.76;67.32
36630;BME280;36256;42.154;23.002;2023-05-25T11:52:07;97219.50;;;21.75;68.51
36630;BME280;36256;42.154;23.002;2023-05-25T11:54:36;97243.84;;;21.81;69.05
36630;BME280;36256;42.154;23.002;2023-05-25T11:57:16;97235.50;;;21.54;70.59
36630;BME280;36256;42.154;23.002;2023-05-25T11:59:51;97225.91;;;21.46;72.40
36630;BME280;36256;42.154;23.002;2023-05-25T12:02:19;97227.47;;;21.47;73.16
36630;BME280;36256;42.154;23.002;2023-05-25T12:04:55;97217.81;;;21.55;71.24
36630;BME280;36256;42.154;23.002;2023-05-25T12:07:23;97228.94;;;21.64;74.36
36630;BME280;36256;42.154;23.002;2023-05-25T12:10:12;97230.28;;;21.52;73.92
36630;BME280;36256;42.154;23.002;2023-05-25T12:15:13;97210.66;;;21.38;76.41
36630;BME280;36256;42.154;23.002;2023-05-25T12:17:41;97203.84;;;21.46;76.56
36630;BME280;36256;42.154;23.002;2023-05-25T12:20:10;97206.31;;;21.66;73.33
36630;BME280;36256;42.154;23.002;2023-05-25T12:22:40;97214.28;;;21.73;75.94
36630;BME280;36256;42.154;23.002;2023-05-25T12:25:09;97210.88;;;21.80;77.42
36630;BME280;36256;42.154;23.002;2023-05-25T12:27:36;97192.03;;;22.02;76.14
36630;BME280;36256;42.154;23.002;2023-05-25T12:30:04;97198.69;;;22.10;77.76
36630;BME280;36256;42.154;23.002;2023-05-25T12:32:31;97191.38;;;22.14;77.46
36630;BME280;36256;42.154;23.002;2023-05-25T12:35:05;97190.50;;;22.25;74.85
36630;BME280;36256;42.154;23.002;2023-05-25T12:37:33;97196.34;;;22.38;78.18
36630;BME280;36256;42.154;23.002;2023-05-25T12:39:59;97178.88;;;22.41;69.34
36630;BME280;36256;42.154;23.002;2023-05-25T12:42:26;97196.22;;;22.49;76.09
36630;BME280;36256;42.154;23.002;2023-05-25T12:44:56;97185.44;;;22.36;74.74
36630;BME280;36256;42.154;23.002;2023-05-25T12:47:24;97175.00;;;22.39;74.60
36630;BME280;36256;42.154;23.002;2023-05-25T12:52:41;97151.19;;;22.55;65.90
36630;BME280;36256;42.154;23.002;2023-05-25T12:57:47;97161.06;;;22.54;73.48
36630;BME280;36256;42.154;23.002;2023-05-25T13:00:46;97161.03;;;22.59;72.56
36630;BME280;36256;42.154;23.002;2023-05-25T13:03:12;97149.59;;;22.59;69.67
36630;BME280;36256;42.154;23.002;2023-05-25T13:05:43;97155.47;;;22.67;72.18
36630;BME280;36256;42.154;23.002;2023-05-25T13:08:11;97156.41;;;22.75;69.73
36630;BME280;36256;42.154;23.002;2023-05-25T13:10:38;97151.56;;;22.89;68.70
36630;BME280;36256;42.154;23.002;2023-05-25T13:13:05;97144.34;;;22.82;67.32
36630;BME280;36256;42.154;23.002;2023-05-25T13:15:32;97151.47;;;22.94;73.84